sensor_id;sensor_type;location;lat;lon;timestamp;pressure;altitude;pressure_sealevel;temperature;humidity
8894;BME280;4483;48.622;9.230;2023-11-19T00:01:51;97828.63;;;8.09;100.00
8894;BME280;4483;48.622;9.230;2023-11-19T00:04:18;97829.38;;;8.13;100.00
8894;BME280;4483;48.622;9.230;2023-11-19T00:06:44;97830.16;;;8.15;100.00
8894;BME280;4483;48.622;9.230;2023-11-19T00:09:12;97848.91;;;8.17;100.00
8894;BME280;4483;48.622;9.230;2023-11-19T00:11:40;97842.88;;;8.20;100.00
8894;BME280;4483;48.622;9.230;2023-11-19T00:14:07;97838.44;;;8.25;100.00
8894;BME280;4483;48.622;9.230;2023-11-19T00:16:33;97831.63;;;8.24;100.00
8894;BME280;4483;48.622;9.230;2023-11-19T00:19:00;97829.91;;;8.23;100.00
8894;BME280;4483;48.622;9.230;2023-11-19T00:21:27;97829.91;;;8.23;100.00
8894;BME280;4483;48.622;9.230;2023-11-19T00:23:54;97824.78;;;8.24;100.00
8894;BME280;4483;48.622;9.230;2023-11-19T00:26:22;97816.16;;;8.27;100.00
8894;BME280;4483;48.622;9.230;2023-11-19T00:28:48;97812.66;;;8.29;100.00
8894;BME280;4483;48.622;9.230;2023-11-19T00:31:15;97798.84;;;8.33;100.00
8894;BME280;4483;48.622;9.230;2023-11-19T00:33:42;97812.31;;;8.40;100.00
8894;BME280;4483;48.622;9.230;2023-11-19T00:36:09;97814.81;;;8.41;100.00
8894;BME280;4483;48.622;9.230;2023-11-19T00:38:36;97807.16;;;8.40;100.00
8894;BME280;4483;48.622;9.230;2023-11-19T00:41:03;97808.63;;;8.47;100.00
8894;BME280;4483;48.622;9.230;2023-11-19T00:43:31;97807.72;;;8.49;100.00
8894;BME280;4483;48.622;9.230;2023-11-19T00:45:58;97804.16;;;8.53;100.00
8894;BME280;4483;48.622;9.230;2023-11-19T00:48:26;97797.22;;;8.55;100.00
8894;BME280;4483;48.622;9.230;2023-11-19T00:50:53;97792.00;;;8.58;100.00
8894;BME280;4483;48.622;9.230;2023-11-19T00:53:20;97786.00;;;8.58;100.00
8894;BME280;4483;48.622;9.230;2023-11-19T00:55:46;97792.78;;;8.60;100.00
8894;BME280;4483;48.622;9.230;2023-11-19T00:58:13;97783.31;;;8.62;100.00
8894;BME280;4483;48.622;9.230;2023-11-19T01:00:41;97774.38;;;8.72;100.00
8894;BME280;4483;48.622;9.230;2023-11-19T01:03:08;97775.97;;;8.76;100.00
8894;BME280;4483;48.622;9.230;2023-11-19T01:05:34;97766.53;;;8.77;100.00
8894;BME280;4483;48.622;9.230;2023-11-19T01:08:01;97763.97;;;8.77;100.00
8894;BME280;4483;48.622;9.230;2023-11-19T01:10:29;97756.75;;;8.86;100.00
8894;BME280;4483;48.622;9.230;2023-11-19T01:12:56;97758.56;;;8.84;100.00
8894;BME280;4483;48.622;9.230;2023-11-19T01:15:23;97756.00;;;8.84;100.00
8894;BME280;4483;48.622;9.230;2023-11-19T01:17:51;97750.84;;;8.84;100.00
8894;BME280;4483;48.622;9.230;2023-11-19T01:20:17;97740.59;;;8.83;100.00
8894;BME280;4483;48.622;9.230;2023-11-19T01:22:45;97750.69;;;8.89;100.00
8894;BME280;4483;48.622;9.230;2023-11-19T01:25:14;97748.97;;;8.89;100.00
8894;BME280;4483;48.622;9.230;2023-11-19T01:27:40;97744.69;;;8.88;100.00
8894;BME280;4483;48.622;9.230;2023-11-19T01:30:08;97739.56;;;8.88;100.00
8894;BME280;4483;48.622;9.230;2023-11-19T01:32:38;97741.31;;;8.88;100.00
8894;BME280;4483;48.622;9.230;2023-11-19T01:35:07;97720.69;;;8.89;100.00
8894;BME280;4483;48.622;9.230;2023-11-19T01:37:34;97721.31;;;8.96;100.00
8894;BME280;4483;48.622;9.230;2023-11-19T01:40:01;97714.38;;;8.98;100.00
8894;BME280;4483;48.622;9.230;2023-11-19T01:42:30;97712.59;;;9.00;100.00
8894;BME280;4483;48.622;9.230;2023-11-19T01:44:58;97721.03;;;9.03;100.00
8894;BME280;4483;48.622;9.230;2023-11-19T01:47:25;97719.31;;;9.04;100.00
8894;BME280;4483;48.622;9.230;2023-11-19T01:49:52;97721.66;;;9.10;100.00
8894;BME280;4483;48.622;9.230;2023-11-19T01:52:20;97725.16;;;9.07;100.00
8894;BME280;4483;48.622;9.230;2023-11-19T01:54:47;97735.25;;;9.13;100.00
8894;BME280;4483;48.622;9.230;2023-11-19T01:57:14;97728.47;;;9.11;100.00
8894;BME280;4483;48.622;9.230;2023-11-19T01:59:42;97731.75;;;9.14;100.00
8894;BME280;4483;48.622;9.230;2023-11-19T02:02:09;97726.75;;;9.11;100.00
8894;BME280;4483;48.622;9.230;2023-11-19T02:04:35;97719.97;;;9.09;100.00
8894;BME280;4483;48.622;9.230;2023-11-19T02:07:03;97717.34;;;9.10;100.00
8894;BME280;4483;48.622;9.230;2023-11-19T02:09:31;97715.63;;;9.11;100.00
8894;BME280;4483;48.622;9.230;2023-11-19T02:11:58;97712.91;;;9.14;100.00
8894;BME280;4483;48.622;9.230;2023-11-19T02:14:25;97705.22;;;9.14;100.00
8894;BME280;4483;48.622;9.230;2023-11-19T02:16:52;97699.25;;;9.13;100.00
8894;BME280;4483;48.622;9.230;2023-11-19T02:19:19;97705.94;;;9.18;100.00
8894;BME280;4483;48.622;9.230;2023-11-19T02:21:46;97716.22;;;9.18;100.00
8894;BME280;4483;48.622;9.230;2023-11-19T02:24:14;97705.13;;;9.17;100.00
8894;BME280;4483;48.622;9.230;2023-11-19T02:26:49;97711.03;;;9.19;100.00
8894;BME280;4483;48.622;9.230;2023-11-19T02:29:19;97705.78;;;9.22;100.00
8894;BME280;4483;48.622;9.230;2023-11-19T02:31:46;97689.63;;;9.19;100.00
8894;BME280;4483;48.622;9.230;2023-11-19T02:34:13;97692.78;;;9.25;100.00
8894;BME280;4483;48.622;9.230;2023-11-19T02:36:39;97700.44;;;9.27;100.00
8894;BME280;4483;48.622;9.230;2023-11-19T02:39:06;97697.84;;;9.28;100.00
8894;BME280;4483;48.622;9.230;2023-11-19T02:41:36;97697.59;;;9.34;100.00
8894;BME280;4483;48.622;9.230;2023-11-19T02:44:05;97689.78;;;9.37;100.00
8894;BME280;4483;48.622;9.230;2023-11-19T02:46:33;97686.00;;;9.46;100.00
8894;BME280;4483;48.622;9.230;2023-11-19T02:49:00;97691.81;;;9.51;100.00
8894;BME280;4483;48.622;9.230;2023-11-19T02:51:27;97692.66;;;9.51;100.00
8894;BME280;4483;48.622;9.230;2023-11-19T02:53:55;97691.75;;;9.52;100.00
8894;BME280;4483;48.622;9.230;2023-11-19T02:56:22;97693.50;;;9.52;100.00
8894;BME280;4483;48.622;9.230;2023-11-19T02:58:52;97699.28;;;9.57;100.00
8894;BME280;4483;48.622;9.230;2023-11-19T03:01:22;97683.16;;;9.53;100.00
8894;BME280;4483;48.622;9.230;2023-11-19T03:03:56;97699.94;;;9.62;100.00
8894;BME280;4483;48.622;9.230;2023-11-19T03:06:23;97684.44;;;9.63;100.00
8894;BME280;4483;48.622;9.230;2023-11-19T03:08:50;97699.88;;;9.63;100.00
8894;BME280;4483;48.622;9.230;2023-11-19T03:11:17;97692.94;;;9.65;100.00
8894;BME280;4483;48.622;9.230;2023-11-19T03:13:44;97692.91;;;9.67;100.00
8894;BME280;4483;48.622;9.230;2023-11-19T03:16:12;97695.22;;;9.73;100.00
8894;BME280;4483;48.622;9.230;2023-11-19T03:18:39;97699.59;;;9.71;100.00
8894;BME280;4483;48.622;9.230;2023-11-19T03:21:07;97702.16;;;9.71;100.00
8894;BME280;4483;48.622;9.230;2023-11-19T03:23:34;97713.28;;;9.71;100.00
8894;BME280;4483;48.622;9.230;2023-11-19T03:26:01;97702.94;;;9.73;100.00
8894;BME280;4483;48.622;9.230;2023-11-19T03:28:30;97704.63;;;9.74;100.00
8894;BME280;4483;48.622;9.230;2023-11-19T03:30:57;97708.88;;;9.75;100.00
8894;BME280;4483;48.622;9.230;2023-11-19T03:33:24;97715.56;;;9.79;100.00
8894;BME280;4483;48.622;9.230;2023-11-19T03:35:51;97710.41;;;9.79;100.00
8894;BME280;4483;48.622;9.230;2023-11-19T03:38:19;97712.09;;;9.80;100.00
8894;BME280;4483;48.622;9.230;2023-11-19T03:40:46;97709.47;;;9.81;100.00
8894;BME280;4483;48.622;9.230;2023-11-19T03:43:12;97709.28;;;9.86;100.00
8894;BME280;4483;48.622;9.230;2023-11-19T03:45:39;97701.56;;;9.86;100.00
8894;BME280;4483;48.622;9.230;2023-11-19T03:48:06;97701.56;;;9.86;100.00
8894;BME280;4483;48.622;9.230;2023-11-19T03:50:32;97692.97;;;9.87;100.00
8894;BME280;4483;48.622;9.230;2023-11-19T03:53:00;97693.66;;;9.90;100.00
8894;BME280;4483;48.622;9.230;2023-11-19T03:55:29;97696.19;;;9.92;100.00
8894;BME280;4483;48.622;9.230;2023-11-19T03:57:56;97695.31;;;9.91;100.00
8894;BME280;4483;48.622;9.230;2023-11-19T04:00:23;97690.97;;;9.93;100.00
8894;BME280;4483;48.622;9.230;2023-11-19T04:02:49;97703.75;;;9.95;100.00
8894;BME280;4483;48.622;9.230;2023-11-19T04:05:16;97699.53;;;9.94;100.00
8894;BME280;4483;48.622;9.230;2023-11-19T04:07:44;97691.53;;;10.00;100.00
8894;BME280;4483;48.622;9.230;2023-11-19T04:10:10;97686.38;;;10.00;100.00
8894;BME280;4483;48.622;9.230;2023-11-19T04:12:38;97665.56;;;10.06;100.00
8894;BME280;4483;48.622;9.230;2023-11-19T04:15:06;97675.78;;;10.07;100.00
8894;BME280;4483;48.622;9.230;2023-11-19T04:17:33;97661.91;;;10.11;100.00
8894;BME280;4483;48.622;9.230;2023-11-19T04:19:59;97662.84;;;10.10;100.00
8894;BME280;4483;48.622;9.230;2023-11-19T04:22:26;97678.22;;;10.12;100.00
8894;BME280;4483;48.622;9.230;2023-11-19T04:24:52;97684.25;;;10.11;100.00
8894;BME280;4483;48.622;9.230;2023-11-19T04:27:19;97697.13;;;10.11;100.00
8894;BME280;4483;48.622;9.230;2023-11-19T04:29:47;97704.03;;;10.10;100.00
8894;BME280;4483;48.622;9.230;2023-11-19T04:32:16;97696.34;;;10.09;100.00
8894;BME280;4483;48.622;9.230;2023-11-19T04:34:42;97689.50;;;10.08;100.00
8894;BME280;4483;48.622;9.230;2023-11-19T04:37:09;97709.22;;;10.09;100.00
8894;BME280;4483;48.622;9.230;2023-11-19T04:39:35;97714.19;;;10.13;100.00
8894;BME280;4483;48.622;9.230;2023-11-19T04:42:02;97712.31;;;10.17;100.00
8894;BME280;4483;48.622;9.230;2023-11-19T04:44:31;97717.34;;;10.20;100.00
8894;BME280;4483;48.622;9.230;2023-11-19T04:46:59;97710.47;;;10.21;100.00
8894;BME280;4483;48.622;9.230;2023-11-19T04:49:26;97703.34;;;10.27;100.00
8894;BME280;4483;48.622;9.230;2023-11-19T04:51:53;97706.69;;;10.29;100.00
8894;BME280;4483;48.622;9.230;2023-11-19T04:54:19;97706.31;;;10.38;100.00
8894;BME280;4483;48.622;9.230;2023-11-19T04:56:46;97708.50;;;10.47;100.00
8894;BME280;4483;48.622;9.230;2023-11-19T04:59:13;97714.41;;;10.49;100.00
8894;BME280;4483;48.622;9.230;2023-11-19T05:01:39;97712.59;;;10.51;100.00
8894;BME280;4483;48.622;9.230;2023-11-19T05:04:08;97716.91;;;10.51;100.00
8894;BME280;4483;48.622;9.230;2023-11-19T05:06:35;97722.88;;;10.51;100.00
8894;BME280;4483;48.622;9.230;2023-11-19T05:09:03;97717.63;;;10.54;100.00
8894;BME280;4483;48.622;9.230;2023-11-19T05:11:32;97720.97;;;10.56;100.00
8894;BME280;4483;48.622;9.230;2023-11-19T05:13:59;97713.19;;;10.58;100.00
8894;BME280;4483;48.622;9.230;2023-11-19T05:16:26;97713.88;;;10.61;100.00
8894;BME280;4483;48.622;9.230;2023-11-19T05:18:52;97709.56;;;10.62;100.00
8894;BME280;4483;48.622;9.230;2023-11-19T05:21:20;97702.72;;;10.61;100.00
8894;BME280;4483;48.622;9.230;2023-11-19T05:23:47;97695.78;;;10.63;100.00
8894;BME280;4483;48.622;9.230;2023-11-19T05:26:17;97712.84;;;10.65;100.00
8894;BME280;4483;48.622;9.230;2023-11-19T05:28:45;97698.81;;;10.72;100.00
8894;BME280;4483;48.622;9.230;2023-11-19T05:31:11;97708.97;;;10.75;100.00
8894;BME280;4483;48.622;9.230;2023-11-19T05:33:38;97717.53;;;10.76;100.00
8894;BME280;4483;48.622;9.230;2023-11-19T05:36:06;97706.38;;;10.75;100.00
8894;BME280;4483;48.622;9.230;2023-11-19T05:38:34;97717.13;;;10.85;100.00
8894;BME280;4483;48.622;9.230;2023-11-19T05:41:01;97720.75;;;10.81;100.00
8894;BME280;4483;48.622;9.230;2023-11-19T05:43:28;97723.41;;;10.79;100.00
8894;BME280;4483;48.622;9.230;2023-11-19T05:45:54;97713.94;;;10.80;100.00
8894;BME280;4483;48.622;9.230;2023-11-19T05:48:21;97714.63;;;10.83;100.00
8894;BME280;4483;48.622;9.230;2023-11-19T05:50:48;97706.91;;;10.83;100.00
8894;BME280;4483;48.622;9.230;2023-11-19T05:53:15;97712.06;;;10.83;100.00
8894;BME280;4483;48.622;9.230;2023-11-19T05:55:43;97705.72;;;10.90;100.00
8894;BME280;4483;48.622;9.230;2023-11-19T05:58:11;97707.28;;;10.94;100.00
8894;BME280;4483;48.622;9.230;2023-11-19T06:00:38;97701.41;;;10.91;100.00
8894;BME280;4483;48.622;9.230;2023-11-19T06:03:05;97715.69;;;10.98;100.00
8894;BME280;4483;48.622;9.230;2023-11-19T06:05:33;97715.63;;;10.99;100.00
8894;BME280;4483;48.622;9.230;2023-11-19T06:07:59;97722.00;;;11.11;100.00
8894;BME280;4483;48.622;9.230;2023-11-19T06:10:26;97728.13;;;11.08;100.00
8894;BME280;4483;48.622;9.230;2023-11-19T06:12:58;97729.16;;;11.04;100.00
8894;BME280;4483;48.622;9.230;2023-11-19T06:15:25;97723.09;;;11.05;100.00
8894;BME280;4483;48.622;9.230;2023-11-19T06:17:51;97730.91;;;11.04;100.00
8894;BME280;4483;48.622;9.230;2023-11-19T06:20:18;97728.38;;;11.02;100.00
8894;BME280;4483;48.622;9.230;2023-11-19T06:22:45;97724.00;;;11.04;100.00
8894;BME280;4483;48.622;9.230;2023-11-19T06:25:12;97719.69;;;11.05;100.00
8894;BME280;4483;48.622;9.230;2023-11-19T06:27:40;97724.91;;;11.03;100.00
8894;BME280;4483;48.622;9.230;2023-11-19T06:30:08;97721.16;;;11.10;100.00
8894;BME280;4483;48.622;9.230;2023-11-19T06:32:35;97723.88;;;11.07;100.00
8894;BME280;4483;48.622;9.230;2023-11-19T06:35:02;97727.00;;;11.14;100.00
8894;BME280;4483;48.622;9.230;2023-11-19T06:37:29;97722.06;;;11.09;100.00
8894;BME280;4483;48.622;9.230;2023-11-19T06:39:56;97725.28;;;11.14;100.00
8894;BME280;4483;48.622;9.230;2023-11-19T06:42:23;97726.13;;;11.15;100.00
8894;BME280;4483;48.622;9.230;2023-11-19T06:44:49;97721.69;;;11.17;100.00
8894;BME280;4483;48.622;9.230;2023-11-19T06:47:18;97732.09;;;11.15;100.00
8894;BME280;4483;48.622;9.230;2023-11-19T06:49:44;97728.75;;;11.13;100.00
8894;BME280;4483;48.622;9.230;2023-11-19T06:52:11;97730.34;;;11.16;100.00
8894;BME280;4483;48.622;9.230;2023-11-19T06:54:38;97733.84;;;11.15;100.00
8894;BME280;4483;48.622;9.230;2023-11-19T06:57:05;97733.78;;;11.17;100.00
8894;BME280;4483;48.622;9.230;2023-11-19T06:59:32;97738.94;;;11.17;100.00
8894;BME280;4483;48.622;9.230;2023-11-19T07:01:59;97744.88;;;11.19;100.00
8894;BME280;4483;48.622;9.230;2023-11-19T07:04:27;97743.75;;;11.24;100.00
8894;BME280;4483;48.622;9.230;2023-11-19T07:06:54;97741.28;;;11.21;100.00
8894;BME280;4483;48.622;9.230;2023-11-19T07:09:20;97745.63;;;11.21;100.00
8894;BME280;4483;48.622;9.230;2023-11-19T07:11:48;97748.22;;;11.21;100.00
8894;BME280;4483;48.622;9.230;2023-11-19T07:14:17;97751.59;;;11.21;100.00
8894;BME280;4483;48.622;9.230;2023-11-19T07:16:44;97746.38;;;11.23;100.00
8894;BME280;4483;48.622;9.230;2023-11-19T07:19:11;97742.00;;;11.25;100.00
8894;BME280;4483;48.622;9.230;2023-11-19T07:21:42;97736.84;;;11.25;100.00
8894;BME280;4483;48.622;9.230;2023-11-19T07:24:09;97738.63;;;11.23;100.00
8894;BME280;4483;48.622;9.230;2023-11-19T07:26:42;97754.34;;;11.37;100.00
8894;BME280;4483;48.622;9.230;2023-11-19T07:29:08;97758.88;;;11.32;100.00
8894;BME280;4483;48.622;9.230;2023-11-19T07:31:35;97761.59;;;11.29;100.00
8894;BME280;4483;48.622;9.230;2023-11-19T07:34:02;97768.28;;;11.33;100.00
8894;BME280;4483;48.622;9.230;2023-11-19T07:36:29;97769.06;;;11.35;100.00
8894;BME280;4483;48.622;9.230;2023-11-19T07:38:57;97762.22;;;11.34;100.00
8894;BME280;4483;48.622;9.230;2023-11-19T07:41:24;97757.81;;;11.36;100.00
8894;BME280;4483;48.622;9.230;2023-11-19T07:43:51;97763.75;;;11.38;100.00
8894;BME280;4483;48.622;9.230;2023-11-19T07:46:18;97766.25;;;11.39;100.00
8894;BME280;4483;48.622;9.230;2023-11-19T07:48:45;97777.50;;;11.38;100.00
8894;BME280;4483;48.622;9.230;2023-11-19T07:51:13;97771.41;;;11.39;100.00
8894;BME280;4483;48.622;9.230;2023-11-19T07:53:39;97772.25;;;11.40;100.00
8894;BME280;4483;48.622;9.230;2023-11-19T07:56:08;97782.50;;;11.41;100.00
8894;BME280;4483;48.622;9.230;2023-11-19T07:58:35;97778.19;;;11.42;100.00
8894;BME280;4483;48.622;9.230;2023-11-19T08:01:02;97784.28;;;11.41;100.00
8894;BME280;4483;48.622;9.230;2023-11-19T08:03:29;97786.00;;;11.40;100.00
8894;BME280;4483;48.622;9.230;2023-11-19T08:05:56;97786.06;;;11.39;100.00
8894;BME280;4483;48.622;9.230;2023-11-19T08:08:23;97773.09;;;11.40;100.00
8894;BME280;4483;48.622;9.230;2023-11-19T08:10:49;97757.56;;;11.42;100.00
8894;BME280;4483;48.622;9.230;2023-11-19T08:13:18;97756.63;;;11.43;100.00
8894;BME280;4483;48.622;9.230;2023-11-19T08:15:45;97764.34;;;11.44;100.00
8894;BME280;4483;48.622;9.230;2023-11-19T08:18:12;97756.59;;;11.44;100.00
8894;BME280;4483;48.622;9.230;2023-11-19T08:20:38;97753.09;;;11.45;100.00
8894;BME280;4483;48.622;9.230;2023-11-19T08:23:06;97743.63;;;11.46;100.00
8894;BME280;4483;48.622;9.230;2023-11-19T08:25:33;97755.53;;;11.48;100.00
8894;BME280;4483;48.622;9.230;2023-11-19T08:28:00;97751.09;;;11.52;100.00
8894;BME280;4483;48.622;9.230;2023-11-19T08:30:30;97752.47;;;11.59;100.00
8894;BME280;4483;48.622;9.230;2023-11-19T08:32:56;97744.50;;;11.63;100.00
8894;BME280;4483;48.622;9.230;2023-11-19T08:35:24;97741.00;;;11.66;100.00
8894;BME280;4483;48.622;9.230;2023-11-19T08:37:50;97740.91;;;11.67;100.00
8894;BME280;4483;48.622;9.230;2023-11-19T08:40:17;97740.72;;;11.72;100.00
8894;BME280;4483;48.622;9.230;2023-11-19T08:42:45;97761.13;;;11.76;100.00
8894;BME280;4483;48.622;9.230;2023-11-19T08:45:11;97754.25;;;11.94;100.00
8894;BME280;4483;48.622;9.230;2023-11-19T08:47:39;97756.09;;;12.45;100.00
8894;BME280;4483;48.622;9.230;2023-11-19T08:50:07;97755.72;;;12.52;100.00
8894;BME280;4483;48.622;9.230;2023-11-19T08:52:33;97757.59;;;12.66;100.00
8894;BME280;4483;48.622;9.230;2023-11-19T08:55:00;97749.22;;;13.12;100.00
8894;BME280;4483;48.622;9.230;2023-11-19T08:57:26;97751.44;;;13.51;100.00
8894;BME280;4483;48.622;9.230;2023-11-19T08:59:53;97744.72;;;14.25;100.00
8894;BME280;4483;48.622;9.230;2023-11-19T09:02:20;97755.69;;;14.30;100.00
8894;BME280;4483;48.622;9.230;2023-11-19T09:04:47;97754.25;;;14.40;100.00
8894;BME280;4483;48.622;9.230;2023-11-19T09:07:14;97752.50;;;14.25;100.00
8894;BME280;4483;48.622;9.230;2023-11-19T09:09:41;97749.97;;;14.23;100.00
8894;BME280;4483;48.622;9.230;2023-11-19T09:12:07;97759.13;;;14.30;100.00
8894;BME280;4483;48.622;9.230;2023-11-19T09:14:34;97769.63;;;14.43;100.00
8894;BME280;4483;48.622;9.230;2023-11-19T09:17:01;97765.34;;;14.71;100.00
8894;BME280;4483;48.622;9.230;2023-11-19T09:19:27;97762.75;;;14.57;100.00
8894;BME280;4483;48.622;9.230;2023-11-19T09:21:55;97771.94;;;14.47;100.00
8894;BME280;4483;48.622;9.230;2023-11-19T09:24:22;97772.47;;;14.38;100.00
8894;BME280;4483;48.622;9.230;2023-11-19T09:26:48;97778.19;;;14.29;100.00
8894;BME280;4483;48.622;9.230;2023-11-19T09:29:15;97786.69;;;14.15;100.00
8894;BME280;4483;48.622;9.230;2023-11-19T09:31:42;97789.06;;;14.04;100.00
8894;BME280;4483;48.622;9.230;2023-11-19T09:34:08;97783.44;;;13.96;100.00
8894;BME280;4483;48.622;9.230;2023-11-19T09:36:35;97771.50;;;13.94;100.00
8894;BME280;4483;48.622;9.230;2023-11-19T09:39:03;97773.16;;;14.10;100.00
8894;BME280;4483;48.622;9.230;2023-11-19T09:41:30;97780.09;;;14.10;100.00
8894;BME280;4483;48.622;9.230;2023-11-19T09:43:57;97787.03;;;14.09;100.00
8894;BME280;4483;48.622;9.230;2023-11-19T09:46:25;97785.63;;;14.04;100.00
8894;BME280;4483;48.622;9.230;2023-11-19T09:48:53;97775.59;;;13.98;100.00
8894;BME280;4483;48.622;9.230;2023-11-19T09:51:21;97777.59;;;13.93;100.00
8894;BME280;4483;48.622;9.230;2023-11-19T09:53:48;97769.91;;;14.07;100.00
8894;BME280;4483;48.622;9.230;2023-11-19T09:56:17;97765.34;;;14.71;100.00
8894;BME280;4483;48.622;9.230;2023-11-19T09:58:44;97765.81;;;14.64;100.00
8894;BME280;4483;48.622;9.230;2023-11-19T10:01:12;97756.38;;;14.77;100.00
8894;BME280;4483;48.622;9.230;2023-11-19T10:03:39;97755.59;;;15.19;100.00
8894;BME280;4483;48.622;9.230;2023-11-19T10:06:09;97758.09;;;15.20;100.00
8894;BME280;4483;48.622;9.230;2023-11-19T10:08:37;97749.84;;;15.13;100.00
8894;BME280;4483;48.622;9.230;2023-11-19T10:11:05;97750.41;;;15.19;100.00
8894;BME280;4483;48.622;9.230;2023-11-19T10:13:34;97747.44;;;15.25;100.00
8894;BME280;4483;48.622;9.230;2023-11-19T10:16:04;97741.13;;;15.14;100.00
8894;BME280;4483;48.622;9.230;2023-11-19T10:18:33;97743.34;;;15.21;100.00
8894;BME280;4483;48.622;9.230;2023-11-19T10:21:03;97751.50;;;15.14;100.00
8894;BME280;4483;48.622;9.230;2023-11-19T10:23:30;97747.44;;;15.10;100.00
8894;BME280;4483;48.622;9.230;2023-11-19T10:26:03;97741.97;;;15.01;100.00
8894;BME280;4483;48.622;9.230;2023-11-19T10:28:39;97756.69;;;15.00;100.00
8894;BME280;4483;48.622;9.230;2023-11-19T10:31:07;97744.31;;;15.20;100.00
8894;BME280;4483;48.622;9.230;2023-11-19T10:33:34;97737.06;;;15.10;100.00
8894;BME280;4483;48.622;9.230;2023-11-19T10:36:01;97742.44;;;15.07;100.00
8894;BME280;4483;48.622;9.230;2023-11-19T10:38:27;97743.63;;;15.02;100.00
8894;BME280;4483;48.622;9.230;2023-11-19T10:40:55;97742.88;;;15.00;100.00
8894;BME280;4483;48.622;9.230;2023-11-19T10:43:22;97740.69;;;15.08;100.00
8894;BME280;4483;48.622;9.230;2023-11-19T10:45:51;97748.75;;;15.46;100.00
8894;BME280;4483;48.622;9.230;2023-11-19T10:48:18;97731.94;;;16.45;100.00
8894;BME280;4483;48.622;9.230;2023-11-19T10:50:50;97731.16;;;17.45;100.00
8894;BME280;4483;48.622;9.230;2023-11-19T10:53:20;97712.75;;;18.32;100.00
8894;BME280;4483;48.622;9.230;2023-11-19T10:55:51;97713.78;;;18.98;100.00
8894;BME280;4483;48.622;9.230;2023-11-19T10:58:21;97721.44;;;19.46;100.00
8894;BME280;4483;48.622;9.230;2023-11-19T11:00:54;97706.13;;;19.95;97.52
8894;BME280;4483;48.622;9.230;2023-11-19T11:03:24;97702.50;;;20.18;92.59
8894;BME280;4483;48.622;9.230;2023-11-19T11:05:53;97700.75;;;19.76;87.42
8894;BME280;4483;48.622;9.230;2023-11-19T11:08:20;97698.59;;;19.15;89.66
8894;BME280;4483;48.622;9.230;2023-11-19T11:10:52;97696.31;;;18.77;91.48
8894;BME280;4483;48.622;9.230;2023-11-19T11:13:19;97696.00;;;18.47;91.94
8894;BME280;4483;48.622;9.230;2023-11-19T11:15:46;97702.44;;;18.30;92.37
8894;BME280;4483;48.622;9.230;2023-11-19T11:18:14;97698.63;;;17.99;92.57
8894;BME280;4483;48.622;9.230;2023-11-19T11:20:41;97696.97;;;17.62;91.51
8894;BME280;4483;48.622;9.230;2023-11-19T11:23:45;97707.53;;;17.36;91.42
8894;BME280;4483;48.622;9.230;2023-11-19T11:26:34;97710.16;;;17.10;92.15
8894;BME280;4483;48.622;9.230;2023-11-19T11:29:13;97714.03;;;17.18;91.63
8894;BME280;4483;48.622;9.230;2023-11-19T11:31:48;97710.59;;;17.04;90.89
8894;BME280;4483;48.622;9.230;2023-11-19T11:34:55;97712.25;;;16.80;92.23
8894;BME280;4483;48.622;9.230;2023-11-19T11:37:30;97713.91;;;16.81;93.24
8894;BME280;4483;48.622;9.230;2023-11-19T11:39:58;97715.06;;;16.77;93.58
8894;BME280;4483;48.622;9.230;2023-11-19T11:42:35;97718.28;;;16.68;94.40
8894;BME280;4483;48.622;9.230;2023-11-19T11:45:04;97710.16;;;16.60;94.44
8894;BME280;4483;48.622;9.230;2023-11-19T11:48:08;97710.44;;;16.56;94.88
8894;BME280;4483;48.622;9.230;2023-11-19T11:50:47;97713.00;;;16.82;93.64
8894;BME280;4483;48.622;9.230;2023-11-19T11:53:19;97691.44;;;16.80;93.54
8894;BME280;4483;48.622;9.230;2023-11-19T11:55:55;97702.88;;;17.16;93.01
8894;BME280;4483;48.622;9.230;2023-11-19T11:58:29;97695.88;;;17.16;92.66
8894;BME280;4483;48.622;9.230;2023-11-19T12:00:58;97694.75;;;17.07;92.34
8894;BME280;4483;48.622;9.230;2023-11-19T12:03:28;97710.38;;;16.95;91.73
8894;BME280;4483;48.622;9.230;2023-11-19T12:05:57;97703.09;;;16.87;92.87
8894;BME280;4483;48.622;9.230;2023-11-19T12:08:28;97705.53;;;17.64;91.06
8894;BME280;4483;48.622;9.230;2023-11-19T12:10:57;97706.75;;;17.71;90.61
8894;BME280;4483;48.622;9.230;2023-11-19T12:13:25;97698.19;;;17.69;90.00
8894;BME280;4483;48.622;9.230;2023-11-19T12:16:08;97693.38;;;17.52;89.72
8894;BME280;4483;48.622;9.230;2023-11-19T12:18:34;97697.84;;;17.25;90.18
8894;BME280;4483;48.622;9.230;2023-11-19T12:21:03;97699.75;;;16.98;91.45
8894;BME280;4483;48.622;9.230;2023-11-19T12:23:31;97692.91;;;16.84;91.74
8894;BME280;4483;48.622;9.230;2023-11-19T12:25:58;97693.00;;;17.08;91.87
8894;BME280;4483;48.622;9.230;2023-11-19T12:28:25;97684.03;;;16.99;90.93
8894;BME280;4483;48.622;9.230;2023-11-19T12:30:53;97686.97;;;17.07;90.38
8894;BME280;4483;48.622;9.230;2023-11-19T12:33:20;97685.03;;;17.35;88.11
8894;BME280;4483;48.622;9.230;2023-11-19T12:35:47;97675.94;;;17.53;87.24
8894;BME280;4483;48.622;9.230;2023-11-19T12:38:23;97669.84;;;17.77;85.82
8894;BME280;4483;48.622;9.230;2023-11-19T12:41:02;97677.22;;;17.60;86.25
8894;BME280;4483;48.622;9.230;2023-11-19T12:43:29;97671.59;;;17.41;86.78
8894;BME280;4483;48.622;9.230;2023-11-19T12:45:55;97679.19;;;17.44;85.58
8894;BME280;4483;48.622;9.230;2023-11-19T12:48:22;97682.31;;;17.36;83.80
8894;BME280;4483;48.622;9.230;2023-11-19T12:50:52;97663.91;;;17.14;84.44
8894;BME280;4483;48.622;9.230;2023-11-19T12:53:19;97673.31;;;17.17;84.06
8894;BME280;4483;48.622;9.230;2023-11-19T12:55:48;97670.13;;;17.37;84.00
8894;BME280;4483;48.622;9.230;2023-11-19T12:58:31;97666.94;;;17.21;84.42
8894;BME280;4483;48.622;9.230;2023-11-19T13:01:01;97655.94;;;17.04;84.68
8894;BME280;4483;48.622;9.230;2023-11-19T13:03:32;97653.41;;;17.64;83.79
8894;BME280;4483;48.622;9.230;2023-11-19T13:06:03;97640.19;;;18.26;82.28
8894;BME280;4483;48.622;9.230;2023-11-19T13:08:36;97639.69;;;18.21;81.26
8894;BME280;4483;48.622;9.230;2023-11-19T13:11:05;97639.66;;;17.86;81.73
8894;BME280;4483;48.622;9.230;2023-11-19T13:13:33;97649.16;;;17.63;82.74
8894;BME280;4483;48.622;9.230;2023-11-19T13:16:05;97647.44;;;17.39;83.95
8894;BME280;4483;48.622;9.230;2023-11-19T13:18:31;97643.22;;;17.13;84.87
8894;BME280;4483;48.622;9.230;2023-11-19T13:20:58;97636.69;;;16.94;84.86
8894;BME280;4483;48.622;9.230;2023-11-19T13:23:25;97638.78;;;16.89;85.15